Augusta, Kansas
Current Conditions -  °F | °C
As of 6:55 AM on Saturday 20 Dec 2014 (Local Time) from KEQA Reporting Station
Scattered Clouds Scattered Clouds  
Wind Chill: -2°   Ceiling: Unl
Heat Index:   Visibility: 7mi
Dew Point:   Wind: 7mph
Humidity: 93%   Direction: 170°S
Pressure: 30.17"   Gusts: NA
Location:  37.68°N, 96.98°W
Report Text: KEQA 201255Z AUTO 17006KT 7SM SCT020 01/00 A3017 RMK AO2
Loading
Personal Weather Stations






























Interactive Weather Map New forecast layout! Learn more

10-Day Weather Forecast

Advertisements
Track Severe Weather on mobile